Time;durP1;ratioP1;P1;durP2;ratioP2;P2;SDS_P1;SDS_P2;PMS_P1;PMS_P2;Temp;Humidity;BMP_temperature;BMP_pressure;BME280_temperature;BME280_humidity;BME280_pressure;Samples;Min_cycle;Max_cycle;Signal;HPM_P1;HPM_P2
2022/02/03 00:00:44;;;;;;;12.13;3.80;;;-1.00;99.90;;;;;;5029827;28;20056;-89
2022/02/03 00:03:18;;;;;;;12.43;3.47;;;-1.00;99.90;;;;;;5029977;28;20103;-89
2022/02/03 00:05:53;;;;;;;10.30;3.60;;;-1.00;99.90;;;;;;5029465;28;20144;-90
2022/02/03 00:08:31;;;;;;;14.27;3.60;;;-1.10;99.90;;;;;;5029837;28;20145;-90
2022/02/03 00:17:01;;;;;;;12.43;3.35;;;-1.10;99.90;;;;;;5014246;28;20138;-90
2022/02/03 00:22:13;;;;;;;17.25;3.25;;;-1.00;99.90;;;;;;5014100;28;20084;-90
2022/02/03 00:25:21;;;;;;;16.70;3.03;;;-1.00;99.90;;;;;;5029390;28;20057;-90
2022/02/03 00:28:13;;;;;;;11.25;3.42;;;-1.00;99.90;;;;;;5013993;28;20510;-90
2022/02/03 00:36:13;;;;;;;13.07;3.45;;;-0.90;99.90;;;;;;5012974;28;20050;-90
2022/02/03 00:49:53;;;;;;;19.08;3.83;;;-0.80;99.90;;;;;;5013264;28;20584;-90
2022/02/03 00:52:20;;;;;;;10.93;3.60;;;-0.70;99.90;;;;;;5029178;28;20108;-90
2022/02/03 00:54:47;;;;;;;19.63;4.22;;;-0.70;99.90;;;;;;5029120;28;20133;-90
2022/02/03 00:57:25;;;;;;;29.90;5.97;;;-0.60;99.90;;;;;;5029095;28;20136;-90
2022/02/03 01:00:07;;;;;;;20.60;5.30;;;-0.60;99.90;;;;;;5028895;28;20140;-91
2022/02/03 01:02:41;;;;;;;21.60;4.90;;;-0.50;99.90;;;;;;5029401;28;20133;-91
2022/02/03 01:05:08;;;;;;;34.42;5.80;;;-0.40;99.90;;;;;;5029091;28;20161;-91
2022/02/03 01:07:37;;;;;;;29.25;6.57;;;-0.40;99.90;;;;;;5029769;28;20050;-91
2022/02/03 01:10:15;;;;;;;23.25;5.38;;;-0.30;99.90;;;;;;5029369;28;20069;-90
2022/02/03 01:12:57;;;;;;;25.23;5.25;;;-0.30;99.90;;;;;;5029395;28;20376;-90
2022/02/03 01:20:58;;;;;;;27.83;5.72;;;-0.20;99.90;;;;;;5014592;28;20085;-90
2022/02/03 01:34:38;;;;;;;19.13;4.85;;;-0.10;99.90;;;;;;5013735;28;20045;-91
2022/02/03 01:53:57;;;;;;;20.42;4.55;;;-0.10;99.90;;;;;;5017157;28;20081;-91
2022/02/03 01:56:55;;;;;;;25.90;5.22;;;-0.10;99.90;;;;;;5031865;28;20140;-91
2022/02/03 01:59:25;;;;;;;16.40;4.15;;;-0.20;99.90;;;;;;5015526;28;20074;-91
2022/02/03 02:02:00;;;;;;;17.10;4.13;;;-0.30;99.90;;;;;;5032089;28;20050;-91
2022/02/03 02:05:02;;;;;;;19.10;4.57;;;-0.30;99.90;;;;;;5031865;28;20468;-91
2022/02/03 02:07:52;;;;;;;25.95;4.40;;;-0.30;99.90;;;;;;5032115;28;20085;-91
2022/02/03 02:13:39;;;;;;;17.30;3.80;;;-0.30;99.90;;;;;;5016691;28;20140;-91
2022/02/03 02:19:00;;;;;;;6.95;3.53;;;-0.40;99.90;;;;;;5016980;28;20471;-91
2022/02/03 02:38:53;;;;;;;15.80;4.53;;;-0.40;99.90;;;;;;5016590;28;20483;-91
2022/02/03 02:42:23;;;;;;;19.17;4.93;;;-0.50;99.90;;;;;;5016099;28;20054;-91
2022/02/03 02:44:38;;;;;;;15.35;4.60;;;-0.40;99.90;;;;;;5016422;28;20558;-91
2022/02/03 02:47:15;;;;;;;13.25;4.07;;;-0.30;99.90;;;;;;5031729;28;20477;-91
2022/02/03 02:50:01;;;;;;;18.27;4.65;;;-0.20;99.90;;;;;;5031921;28;20054;-91
2022/02/03 02:52:38;;;;;;;12.10;4.22;;;-0.10;99.90;;;;;;5031492;28;20073;-91
2022/02/03 02:55:27;;;;;;;17.63;4.90;;;-0.20;99.90;;;;;;5031731;28;20469;-91
2022/02/03 03:04:25;;;;;;;23.48;5.80;;;-0.10;99.90;;;;;;5016525;28;20103;-91
2022/02/03 03:29:04;;;;;;;17.85;4.47;;;-0.10;99.90;;;;;;5016225;28;20574;-91
2022/02/03 03:29:31;;;;;;;17.13;4.38;;;0.00;99.90;;;;;;5016094;28;20137;-91
2022/02/03 03:37:05;;;;;;;12.25;4.15;;;0.10;99.90;;;;;;5016688;28;20062;-90
2022/02/03 03:39:40;;;;;;;15.77;4.32;;;0.20;99.90;;;;;;5031112;28;20136;-91
2022/02/03 03:42:11;;;;;;;13.48;4.35;;;0.20;99.90;;;;;;5031095;28;20149;-91
2022/02/03 03:44:40;;;;;;;16.58;4.55;;;0.20;99.90;;;;;;5031201;28;20474;-91
2022/02/03 03:47:13;;;;;;;16.65;4.68;;;0.20;99.90;;;;;;5031373;28;20101;-91
2022/02/03 03:49:45;;;;;;;24.88;5.57;;;0.20;99.90;;;;;;5030706;28;20140;-91
2022/02/03 03:52:23;;;;;;;23.05;4.97;;;0.20;99.90;;;;;;5030680;28;20141;-91
2022/02/03 03:55:13;;;;;;;13.65;4.18;;;0.10;99.90;;;;;;5030767;28;20077;-91
2022/02/03 04:45:49;;;;;;;20.48;5.40;;;0.70;99.90;;;;;;5014090;28;20050;-93
2022/02/03 04:57:55;;;;;;;20.70;4.53;;;0.90;99.90;;;;;;5013688;28;20171;-92
2022/02/03 05:06:19;;;;;;;16.77;4.68;;;0.70;99.90;;;;;;5013649;28;20058;-92
2022/02/03 05:12:26;;;;;;;13.70;4.80;;;0.80;99.90;;;;;;5013459;28;20053;-92
2022/02/03 05:21:46;;;;;;;14.52;4.57;;;1.00;99.90;;;;;;5015299;28;20084;-92
2022/02/03 05:24:41;;;;;;;13.18;3.70;;;0.90;99.90;;;;;;5009987;28;20070;-92
2022/02/03 05:34:10;;;;;;;14.65;4.15;;;1.00;99.90;;;;;;5017457;28;20556;-91
2022/02/03 05:48:18;;;;;;;14.70;4.93;;;0.90;99.90;;;;;;5017030;28;20458;-92
2022/02/03 05:51:10;;;;;;;13.90;4.88;;;1.00;99.90;;;;;;5032157;28;20048;-92
2022/02/03 05:54:56;;;;;;;16.75;5.07;;;1.10;99.90;;;;;;5032428;28;20141;-91
2022/02/03 06:02:37;;;;;;;20.25;4.68;;;1.10;99.90;;;;;;5016888;28;20132;-92
2022/02/03 06:15:31;;;;;;;11.95;4.90;;;1.20;99.90;;;;;;5016451;28;20088;-93
2022/02/03 06:21:24;;;;;;;19.77;5.57;;;1.20;99.90;;;;;;5015646;28;20054;-93
2022/02/03 06:23:51;;;;;;;57.80;27.15;;;1.30;99.90;;;;;;5016079;28;20129;-93
2022/02/03 06:29:12;;;;;;;47.53;21.90;;;1.80;99.90;;;;;;5016193;28;20049;-93
2022/02/03 06:31:42;;;;;;;35.67;14.95;;;2.10;99.90;;;;;;5012666;28;20497;-92
2022/02/03 06:34:12;;;;;;;39.63;18.83;;;2.30;99.90;;;;;;5014043;28;20046;-92
2022/02/03 06:36:40;;;;;;;50.42;20.10;;;2.50;99.90;;;;;;5014423;28;20132;-93
2022/02/03 06:39:16;;;;;;;53.40;32.58;;;2.60;99.90;;;;;;5015205;28;20137;-92
2022/02/03 06:41:45;;;;;;;48.80;26.33;;;2.70;99.90;;;;;;5014707;28;20136;-92
2022/02/03 06:44:14;;;;;;;72.80;38.85;;;2.70;99.90;;;;;;5014307;28;20107;-91
2022/02/03 06:46:45;;;;;;;38.50;17.30;;;2.70;99.90;;;;;;5015067;28;20113;-92
2022/02/03 06:52:10;;;;;;;48.38;29.13;;;2.80;99.90;;;;;;4995012;28;20127;-92
2022/02/03 06:57:22;;;;;;;95.20;61.53;;;2.90;99.90;;;;;;5014713;28;20050;-93
2022/02/03 06:59:58;;;;;;;79.47;48.15;;;3.00;99.90;;;;;;5014681;28;20407;-92
2022/02/03 07:02:28;;;;;;;152.25;99.78;;;3.00;99.90;;;;;;5013127;28;20045;-91
2022/02/03 07:04:57;;;;;;;85.05;50.20;;;3.00;99.90;;;;;;5014317;28;20049;-93
2022/02/03 07:07:25;;;;;;;146.85;96.93;;;3.10;99.90;;;;;;5013850;28;20448;-92
2022/02/03 07:09:53;;;;;;;37.17;17.17;;;3.10;99.90;;;;;;5014340;28;20088;-92
2022/02/03 07:12:21;;;;;;;65.35;35.75;;;3.10;99.90;;;;;;5013694;28;20486;-92
2022/02/03 07:14:48;;;;;;;67.40;37.45;;;3.10;99.90;;;;;;5013741;28;20057;-91
2022/02/03 07:17:15;;;;;;;68.80;46.97;;;3.10;99.90;;;;;;5015332;28;20141;-93
2022/02/03 07:19:47;;;;;;;52.65;27.02;;;3.20;99.90;;;;;;5013308;28;20054;-93
2022/02/03 07:22:15;;;;;;;124.15;66.88;;;3.20;99.90;;;;;;5019220;28;20081;-91
2022/02/03 07:24:51;;;;;;;20.73;9.80;;;3.20;99.90;;;;;;5013935;28;20060;-93
2022/02/03 07:27:20;;;;;;;21.90;7.97;;;3.30;99.90;;;;;;5030828;28;20054;-93
2022/02/03 07:29:49;;;;;;;22.95;8.00;;;3.30;99.90;;;;;;5029890;28;20084;-94
2022/02/03 07:32:17;;;;;;;22.23;7.13;;;3.30;99.90;;;;;;5015423;28;20443;-93
2022/02/03 07:34:43;;;;;;;20.75;8.05;;;3.30;99.90;;;;;;5030515;28;20060;-93
2022/02/03 07:37:10;;;;;;;13.60;7.28;;;3.40;99.90;;;;;;5030231;28;20061;-93
2022/02/03 07:39:39;;;;;;;13.93;7.07;;;3.50;99.90;;;;;;5028786;28;20507;-93
2022/02/03 07:42:06;;;;;;;18.73;9.95;;;3.50;99.90;;;;;;5013819;28;20054;-93
2022/02/03 07:44:32;;;;;;;19.40;9.60;;;3.60;99.90;;;;;;5013499;28;20532;-93
2022/02/03 07:46:59;;;;;;;17.17;9.93;;;3.70;99.90;;;;;;5012701;28;20501;-91
2022/02/03 07:49:29;;;;;;;31.05;12.85;;;3.90;99.90;;;;;;5029287;28;20508;-90
2022/02/03 07:51:56;;;;;;;29.17;13.23;;;4.00;99.90;;;;;;5013633;28;20133;-90
2022/02/03 07:54:24;;;;;;;22.52;11.75;;;4.10;99.90;;;;;;5012835;28;20057;-90
2022/02/03 07:56:51;;;;;;;28.83;15.35;;;4.10;99.90;;;;;;5013514;28;20104;-90
2022/02/03 07:59:17;;;;;;;33.20;14.75;;;4.30;99.90;;;;;;5012974;28;20054;-90
2022/02/03 08:01:44;;;;;;;20.48;10.05;;;4.50;99.90;;;;;;5013108;28;20481;-90
2022/02/03 08:04:12;;;;;;;19.13;9.13;;;4.60;99.90;;;;;;5013751;28;20048;-90
2022/02/03 08:06:44;;;;;;;17.67;8.45;;;4.50;99.90;;;;;;5028297;28;20052;-90
2022/02/03 08:09:20;;;;;;;21.65;9.93;;;4.50;99.90;;;;;;5028612;28;20521;-90
2022/02/03 08:11:52;;;;;;;12.82;6.93;;;4.60;99.90;;;;;;5028050;28;20060;-90
2022/02/03 08:14:31;;;;;;;24.58;11.93;;;4.50;99.90;;;;;;5028898;28;20376;-90
2022/02/03 08:17:05;;;;;;;23.73;10.95;;;4.40;99.90;;;;;;5013038;28;20501;-90
2022/02/03 08:19:42;;;;;;;17.88;8.95;;;4.50;99.90;;;;;;5013251;28;20081;-90
2022/02/03 08:22:15;;;;;;;20.70;10.15;;;4.70;99.90;;;;;;5028508;28;20057;-90
2022/02/03 08:24:55;;;;;;;10.75;7.88;;;5.00;99.90;;;;;;5013253;28;20432;-90
2022/02/03 08:32:17;;;;;;;7.05;5.18;;;5.50;99.90;;;;;;5014083;28;20069;-90
2022/02/03 08:37:22;;;;;;;4.18;2.78;;;5.40;99.90;;;;;;5013627;28;20567;-89
2022/02/03 08:39:55;;;;;;;5.30;2.65;;;5.40;99.90;;;;;;5028302;28;20061;-90
2022/02/03 08:42:28;;;;;;;10.55;3.10;;;5.30;99.90;;;;;;5012526;28;20050;-89
2022/02/03 08:44:54;;;;;;;4.03;3.03;;;5.40;99.90;;;;;;5027850;28;20415;-90
2022/02/03 08:47:21;;;;;;;2.53;2.10;;;5.40;99.90;;;;;;5028968;28;20052;-89
2022/02/03 08:49:48;;;;;;;3.25;2.10;;;5.60;99.90;;;;;;5029107;28;20056;-89
2022/02/03 08:52:17;;;;;;;2.65;2.42;;;6.00;99.90;;;;;;5027882;28;20050;-89
2022/02/03 08:57:39;;;;;;;2.22;2.13;;;6.90;99.90;;;;;;5021255;28;20046;-89
2022/02/03 09:00:29;;;;;;;1.75;1.65;;;7.00;99.90;;;;;;5035706;28;20060;-89
2022/02/03 09:28:51;;;;;;;1.40;1.30;;;7.20;99.90;;;;;;5020471;28;20397;-88
2022/02/03 09:34:40;;;;;;;1.85;0.98;;;7.40;99.90;;;;;;5020340;28;20053;-88
2022/02/03 09:58:19;;;;;;;0.73;0.73;;;8.20;99.90;;;;;;5020119;28;20114;-87
2022/02/03 10:03:36;;;;;;;0.60;0.60;;;7.90;99.90;;;;;;5019953;28;20486;-88
2022/02/03 10:06:12;;;;;;;0.85;0.85;;;7.90;99.90;;;;;;5035018;28;20054;-87
2022/02/03 10:08:53;;;;;;;0.80;0.80;;;8.00;99.90;;;;;;5032212;28;20487;-88
2022/02/03 10:11:27;;;;;;;2.17;0.88;;;8.10;99.90;;;;;;5032169;28;20062;-87
2022/02/03 10:13:55;;;;;;;;;;;8.30;99.90;;;;;;5032322;28;20096;-88
2022/02/03 10:16:33;;;;;;;0.93;0.93;;;8.50;99.90;;;;;;5015626;28;20353;-88
2022/02/03 10:19:11;;;;;;;1.00;1.00;;;8.70;99.90;;;;;;5032083;28;20487;-86
2022/02/03 10:21:40;;;;;;;1.38;1.27;;;8.70;99.90;;;;;;5031332;28;20449;-87
2022/02/03 10:24:08;;;;;;;1.52;1.40;;;8.70;99.90;;;;;;5031453;28;20141;-87
2022/02/03 10:26:44;;;;;;;1.20;1.20;;;8.70;99.90;;;;;;5031247;28;20058;-88
2022/02/03 10:29:14;;;;;;;1.48;1.38;;;8.60;99.90;;;;;;5031645;28;20076;-87
2022/02/03 10:31:42;;;;;;;1.23;1.13;;;8.60;99.90;;;;;;5031182;28;20052;-87
2022/02/03 10:34:14;;;;;;;2.35;1.73;;;8.50;99.90;;;;;;5030548;28;20499;-87
2022/02/03 10:36:50;;;;;;;1.63;1.52;;;8.30;99.90;;;;;;5031398;28;20073;-87
2022/02/03 10:45:14;;;;;;;2.10;1.90;;;7.90;99.90;;;;;;5015928;28;20052;-87
2022/02/03 10:50:43;;;;;;;2.45;2.25;;;7.90;99.90;;;;;;5015875;28;20081;-87
2022/02/03 11:03:40;;;;;;;2.35;2.15;;;7.60;99.90;;;;;;5015383;28;20136;-87
2022/02/03 11:08:48;;;;;;;2.00;1.90;;;7.50;99.90;;;;;;5015177;28;20092;-89
2022/02/03 11:11:22;;;;;;;2.70;2.50;;;7.50;99.90;;;;;;5030827;28;20502;-86
2022/02/03 11:13:50;;;;;;;2.72;2.53;;;7.60;99.90;;;;;;5030494;28;20120;-87
2022/02/03 11:16:19;;;;;;;2.50;2.35;;;7.50;99.90;;;;;;5030374;28;20513;-89
2022/02/03 11:18:47;;;;;;;4.03;2.83;;;7.30;99.90;;;;;;5029631;28;20070;-86
2022/02/03 11:21:15;;;;;;;3.45;2.97;;;7.10;99.90;;;;;;5030505;28;20099;-88
2022/02/03 11:23:50;;;;;;;3.13;2.92;;;7.00;99.90;;;;;;5015090;28;20042;-91
2022/02/03 11:26:27;;;;;;;2.60;2.40;;;6.90;99.90;;;;;;5014026;28;20060;-90
2022/02/03 11:40:20;;;;;;;3.58;3.30;;;7.20;99.90;;;;;;5014460;28;20061;-87
2022/02/03 11:51:13;;;;;;;4.53;4.13;;;7.40;99.90;;;;;;5014365;28;20106;-91
2022/02/03 12:02:41;;;;;;;4.22;3.75;;;7.00;99.90;;;;;;5014290;28;20077;-89
2022/02/03 12:19:38;;;;;;;4.65;4.18;;;7.10;99.90;;;;;;5014170;28;20049;-87
2022/02/03 12:22:17;;;;;;;4.07;3.78;;;7.10;99.90;;;;;;5028997;28;20054;-86
2022/02/03 12:25:08;;;;;;;3.40;3.10;;;7.20;99.90;;;;;;5029022;28;20046;-87
2022/02/03 12:28:00;;;;;;;4.22;3.58;;;7.10;99.90;;;;;;5013963;28;20050;-89
2022/02/03 12:31:08;;;;;;;3.55;3.25;;;7.10;99.90;;;;;;5011982;28;20061;-87
2022/02/03 12:39:13;;;;;;;4.18;3.78;;;7.10;99.90;;;;;;5013779;28;20057;-86
2022/02/03 12:41:48;;;;;;;4.15;3.80;;;7.20;99.90;;;;;;5028965;28;20064;-87
2022/02/03 12:44:25;;;;;;;5.43;3.80;;;7.20;99.90;;;;;;5012748;28;20049;-87
2022/02/03 12:46:54;;;;;;;5.10;3.50;;;7.30;99.90;;;;;;5028766;28;20049;-87
2022/02/03 12:49:22;;;;;;;3.95;3.58;;;7.30;99.90;;;;;;5029196;28;20046;-86
2022/02/03 12:51:50;;;;;;;4.32;3.92;;;7.30;99.90;;;;;;5029041;28;20136;-87
2022/02/03 12:54:17;;;;;;;4.78;4.20;;;7.20;99.90;;;;;;5029085;28;20046;-87
2022/02/03 12:56:44;;;;;;;3.67;3.38;;;7.10;99.90;;;;;;5013507;28;20053;-87
2022/02/03 12:59:15;;;;;;;4.10;3.63;;;7.10;99.90;;;;;;5028895;28;20046;-87
2022/02/03 13:01:44;;;;;;;4.20;3.80;;;6.90;99.90;;;;;;5028758;28;20425;-87
2022/02/03 13:04:15;;;;;;;4.05;3.67;;;6.90;99.90;;;;;;5013539;28;20042;-88
2022/02/03 13:06:54;;;;;;;4.10;3.70;;;6.90;99.90;;;;;;5012671;28;20060;-87
2022/02/03 13:09:35;;;;;;;3.80;3.50;;;6.70;99.90;;;;;;5028396;28;20494;-87
2022/02/03 13:12:20;;;;;;;4.25;3.17;;;6.80;99.90;;;;;;5028977;28;20071;-87
2022/02/03 13:14:55;;;;;;;3.95;3.03;;;6.90;99.90;;;;;;5012145;28;20054;-87
2022/02/03 13:17:32;;;;;;;3.30;3.10;;;6.90;99.90;;;;;;5028802;28;20411;-87
2022/02/03 13:20:21;;;;;;;3.10;2.90;;;7.00;99.90;;;;;;5028886;28;20050;-88
2022/02/03 13:22:55;;;;;;;3.50;3.20;;;7.20;99.90;;;;;;5028703;28;20053;-87
2022/02/03 13:28:16;;;;;;;3.45;3.15;;;7.30;99.90;;;;;;5013255;28;20136;-87
2022/02/03 13:30:54;;;;;;;6.63;4.88;;;7.20;99.90;;;;;;5028080;28;20045;-87
2022/02/03 13:33:36;;;;;;;4.43;4.03;;;7.20;99.90;;;;;;5028592;28;20058;-87
2022/02/03 13:36:10;;;;;;;3.30;3.00;;;7.30;99.90;;;;;;5028610;28;20050;-88
2022/02/03 13:38:44;;;;;;;3.35;3.05;;;7.30;99.90;;;;;;5013434;28;20058;-87
2022/02/03 13:41:18;;;;;;;2.83;2.60;;;7.30;99.90;;;;;;5028529;28;20055;-87
2022/02/03 13:43:45;;;;;;;;;;;7.40;99.90;;;;;;5015668;28;20042;-88
2022/02/03 13:46:26;;;;;;;3.95;3.63;;;7.30;99.90;;;;;;5016105;28;19921;-87
2022/02/03 13:48:52;;;;;;;3.85;3.00;;;7.40;99.90;;;;;;5031956;28;20042;-87
2022/02/03 13:51:31;;;;;;;3.53;3.22;;;7.40;99.90;;;;;;5032349;28;20511;-88
2022/02/03 14:14:25;;;;;;;9.35;3.78;;;7.10;99.90;;;;;;5015232;28;20050;-88
2022/02/03 14:22:12;;;;;;;9.25;3.90;;;7.20;99.90;;;;;;5017274;28;20461;-88
2022/02/03 14:27:43;;;;;;;5.15;3.50;;;7.50;99.90;;;;;;5016697;28;20050;-87
2022/02/03 14:30:16;;;;;;;6.43;3.45;;;7.50;99.90;;;;;;5032616;28;20049;-87
2022/02/03 14:32:44;;;;;;;6.80;4.00;;;7.50;99.90;;;;;;5030769;28;20057;-88
2022/02/03 14:35:12;;;;;;;3.90;3.53;;;7.50;99.90;;;;;;5031855;28;20045;-88
2022/02/03 14:37:48;;;;;;;3.95;3.38;;;7.40;99.90;;;;;;5031122;28;20050;-88
2022/02/03 14:40:31;;;;;;;5.90;4.18;;;7.40;99.90;;;;;;5014960;28;20490;-87
2022/02/03 14:42:59;;;;;;;5.47;4.97;;;7.40;99.90;;;;;;5030656;28;20486;-87
2022/02/03 14:45:25;;;;;;;6.40;5.75;;;7.30;99.90;;;;;;5014195;28;20077;-87
2022/02/03 14:47:52;;;;;;;6.60;5.72;;;7.30;99.90;;;;;;5030075;28;20160;-86
2022/02/03 14:50:20;;;;;;;6.28;5.68;;;7.30;99.90;;;;;;5029972;28;20062;-88
2022/02/03 14:58:24;;;;;;;4.93;4.43;;;7.40;99.90;;;;;;5014865;28;20046;-88
2022/02/03 15:00:52;;;;;;;5.45;4.95;;;7.30;99.90;;;;;;5029515;28;20132;-87
2022/02/03 15:03:22;;;;;;;4.78;4.40;;;7.40;99.90;;;;;;5030059;28;20061;-87
2022/02/03 15:05:53;;;;;;;5.10;4.65;;;7.40;99.90;;;;;;5029566;28;20050;-86
2022/02/03 15:11:14;;;;;;;7.93;5.18;;;7.50;99.90;;;;;;5014502;28;20487;-86
2022/02/03 15:13:42;;;;;;;6.97;5.20;;;7.40;99.90;;;;;;5029373;28;20053;-86
2022/02/03 15:16:11;;;;;;;6.82;5.43;;;7.50;99.90;;;;;;5029139;28;20080;-86
2022/02/03 15:18:58;;;;;;;6.15;5.55;;;7.50;99.90;;;;;;5027268;28;20046;-86
2022/02/03 15:21:25;;;;;;;5.93;5.32;;;7.50;99.90;;;;;;5029447;28;20056;-86
2022/02/03 15:23:52;;;;;;;5.15;4.57;;;7.40;99.90;;;;;;5029850;28;20046;-86
2022/02/03 15:26:21;;;;;;;6.30;5.00;;;7.40;99.90;;;;;;5029755;28;20132;-86
2022/02/03 15:28:48;;;;;;;6.18;5.13;;;7.40;99.90;;;;;;5029041;28;20482;-86
2022/02/03 15:31:15;;;;;;;7.22;5.10;;;7.40;99.90;;;;;;5029735;28;20057;-87
2022/02/03 15:33:52;;;;;;;6.85;5.65;;;7.40;99.90;;;;;;5029438;28;20056;-86
2022/02/03 15:36:18;;;;;;;6.57;5.28;;;7.40;99.90;;;;;;5029453;28;20136;-87
2022/02/03 15:38:48;;;;;;;7.40;5.30;;;7.40;99.90;;;;;;5029388;28;20042;-87
2022/02/03 15:41:26;;;;;;;5.40;4.70;;;7.30;99.90;;;;;;5029324;28;20105;-90
2022/02/03 15:43:55;;;;;;;5.70;4.85;;;7.30;99.90;;;;;;5029613;28;20080;-88
2022/02/03 15:46:25;;;;;;;5.97;5.38;;;7.30;99.90;;;;;;5013024;28;20104;-88
2022/02/03 15:49:03;;;;;;;6.93;5.82;;;7.30;99.90;;;;;;5029645;28;20064;-89
2022/02/03 15:56:58;;;;;;;6.13;5.53;;;7.10;99.90;;;;;;5013928;28;20137;-88
2022/02/03 16:13:27;;;;;;;11.18;6.82;;;6.90;99.90;;;;;;5013713;28;20054;-88
2022/02/03 16:16:47;;;;;;;9.18;7.57;;;6.90;99.90;;;;;;5028866;28;20081;-87
2022/02/03 16:18:45;;;;;;;10.93;8.40;;;6.90;99.90;;;;;;5013210;28;20521;-87
2022/02/03 16:24:00;;;;;;;10.07;7.47;;;6.60;99.90;;;;;;5013559;28;20050;-88
2022/02/03 16:40:54;;;;;;;7.40;6.47;;;6.60;99.90;;;;;;5013069;28;20049;-88
2022/02/03 16:40:58;;;;;;;9.23;6.57;;;6.50;99.90;;;;;;5015140;28;20506;-88
2022/02/03 16:54:05;;;;;;;7.60;6.75;;;6.30;99.90;;;;;;5012602;28;20092;-87
2022/02/03 16:56:32;;;;;;;13.43;7.72;;;6.30;99.90;;;;;;5028218;28;20093;-87
2022/02/03 16:58:59;;;;;;;9.38;7.45;;;6.30;99.90;;;;;;5028168;28;20210;-88
2022/02/03 17:01:29;;;;;;;10.23;8.00;;;6.30;99.90;;;;;;5028109;28;20087;-87
2022/02/03 17:03:56;;;;;;;18.67;13.80;;;6.30;99.90;;;;;;5028453;28;20060;-87
2022/02/03 17:06:23;;;;;;;12.88;10.50;;;6.20;99.90;;;;;;5011858;28;20052;-87
2022/02/03 17:08:50;;;;;;;15.45;10.95;;;6.10;99.90;;;;;;5011803;28;20058;-87
2022/02/03 17:11:17;;;;;;;10.90;7.82;;;6.20;99.90;;;;;;5011787;28;20046;-87
2022/02/03 17:13:44;;;;;;;16.30;10.82;;;6.20;99.90;;;;;;5027926;28;20053;-88
2022/02/03 17:16:14;;;;;;;13.32;9.68;;;6.20;99.90;;;;;;5011994;28;20041;-87
2022/02/03 17:18:40;;;;;;;18.05;13.07;;;6.10;99.90;;;;;;5015627;28;20491;-88
2022/02/03 17:21:07;;;;;;;12.15;9.98;;;6.10;99.90;;;;;;5015538;28;20046;-87
2022/02/03 17:23:34;;;;;;;14.30;9.77;;;6.20;99.90;;;;;;5031721;28;20064;-87
2022/02/03 17:26:10;;;;;;;12.85;9.63;;;6.20;99.90;;;;;;5031850;28;20050;-87
2022/02/03 17:28:58;;;;;;;13.35;10.20;;;6.20;99.90;;;;;;5015661;28;20120;-87
2022/02/03 17:31:38;;;;;;;15.23;10.30;;;6.20;99.90;;;;;;5015179;28;20050;-88
2022/02/03 17:45:55;;;;;;;28.20;19.70;;;6.10;99.90;;;;;;5016261;28;20045;-88
2022/02/03 17:52:27;;;;;;;17.52;12.23;;;6.10;99.90;;;;;;5015915;28;20058;-87
2022/02/03 18:09:55;;;;;;;12.25;9.38;;;6.10;99.90;;;;;;5015076;28;20045;-87
2022/02/03 18:18:32;;;;;;;12.57;10.10;;;6.20;99.90;;;;;;5015904;28;20046;-87
2022/02/03 18:27:02;;;;;;;17.92;11.57;;;6.00;99.90;;;;;;5015734;28;20050;-88
2022/02/03 18:31:59;;;;;;;17.45;11.43;;;5.90;99.90;;;;;;5015451;28;20050;-87
2022/02/03 18:34:39;;;;;;;18.92;13.07;;;5.90;99.90;;;;;;5014816;28;20060;-87
2022/02/03 18:37:32;;;;;;;15.00;9.60;;;6.00;99.90;;;;;;5014588;28;20131;-89
2022/02/03 18:53:27;;;;;;;9.90;7.55;;;6.20;99.90;;;;;;5014797;28;20041;-89
2022/02/03 18:56:15;;;;;;;8.98;6.43;;;6.20;99.90;;;;;;5030310;28;20046;-89
2022/02/03 18:58:49;;;;;;;11.52;8.00;;;6.30;99.90;;;;;;5030255;28;20486;-88
2022/02/03 19:01:36;;;;;;;;;;;6.30;99.90;;;;;;5030254;28;20414;-89
2022/02/03 19:15:45;;;;;;;12.20;7.45;;;6.40;99.90;;;;;;4991845;28;20054;-88
2022/02/03 19:21:29;;;;;;;14.15;9.68;;;6.30;99.90;;;;;;5015198;28;20041;-88
2022/02/03 19:26:36;;;;;;;14.80;9.20;;;6.20;99.90;;;;;;5014760;28;20049;-88
2022/02/03 20:00:41;;;;;;;11.75;8.68;;;5.90;99.90;;;;;;5014550;28;20049;-88
2022/02/03 20:07:22;;;;;;;37.05;19.10;;;5.90;99.90;;;;;;5014380;28;20125;-88
2022/02/03 20:10:13;;;;;;;24.67;12.98;;;5.90;99.90;;;;;;5013072;28;20050;-88
2022/02/03 20:12:40;;;;;;;15.15;10.25;;;5.90;99.90;;;;;;5013138;28;20056;-86
2022/02/03 20:15:07;;;;;;;13.15;8.27;;;5.90;99.90;;;;;;5012837;28;20060;-88
2022/02/03 20:17:34;;;;;;;10.55;7.60;;;5.90;99.90;;;;;;5013134;28;20052;-88
2022/02/03 20:20:00;;;;;;;10.55;7.50;;;5.90;99.90;;;;;;5029350;28;20054;-88
2022/02/03 20:22:32;;;;;;;9.48;7.07;;;5.90;99.90;;;;;;5029127;28;20081;-88
2022/02/03 20:25:06;;;;;;;7.88;6.30;;;5.90;99.90;;;;;;5028629;28;20050;-89
2022/02/03 20:27:34;;;;;;;11.80;8.85;;;5.90;99.90;;;;;;5029128;28;20045;-88
2022/02/03 20:30:03;;;;;;;12.38;7.57;;;5.90;99.90;;;;;;5029277;28;20050;-88
2022/02/03 20:32:30;;;;;;;12.40;9.15;;;5.90;99.90;;;;;;5029229;28;20050;-88
2022/02/03 20:34:58;;;;;;;13.80;9.80;;;5.80;99.90;;;;;;5029032;28;20056;-88
2022/02/03 20:37:25;;;;;;;19.75;13.57;;;5.80;99.90;;;;;;5029366;28;20487;-88
2022/02/03 20:39:52;;;;;;;22.65;14.48;;;5.80;99.90;;;;;;5012564;28;20060;-88
2022/02/03 20:42:19;;;;;;;18.90;12.52;;;5.70;99.90;;;;;;5012729;28;20054;-88
2022/02/03 20:44:49;;;;;;;16.30;10.70;;;5.60;99.90;;;;;;5029129;28;20054;-88
2022/02/03 20:47:16;;;;;;;17.60;10.90;;;5.70;99.90;;;;;;5012492;28;20502;-88
2022/02/03 20:49:43;;;;;;;12.45;9.43;;;5.70;99.90;;;;;;5012292;28;20062;-88
2022/02/03 20:52:10;;;;;;;14.07;9.95;;;5.70;99.90;;;;;;5028246;28;20141;-88
2022/02/03 20:54:37;;;;;;;13.27;7.85;;;5.70;99.90;;;;;;5011574;28;20133;-88
2022/02/03 20:57:04;;;;;;;8.73;7.03;;;5.70;99.90;;;;;;5028488;28;20050;-88
2022/02/03 20:59:54;;;;;;;7.70;6.65;;;5.80;99.90;;;;;;5012941;28;20506;-88
2022/02/03 21:02:36;;;;;;;8.48;7.40;;;5.80;99.90;;;;;;5012847;28;20133;-88
2022/02/03 21:05:16;;;;;;;10.70;8.80;;;5.70;99.90;;;;;;5027667;28;20140;-88
2022/02/03 21:07:47;;;;;;;9.85;8.05;;;5.70;99.90;;;;;;5012073;28;20052;-88
2022/02/03 21:10:19;;;;;;;9.30;8.00;;;5.70;99.90;;;;;;5028182;28;20050;-88
2022/02/03 21:12:47;;;;;;;9.60;8.13;;;5.70;99.90;;;;;;5027785;28;20053;-88
2022/02/03 21:15:23;;;;;;;12.77;7.82;;;5.60;99.90;;;;;;5028141;28;20060;-88
2022/02/03 21:17:52;;;;;;;9.50;8.20;;;5.70;99.90;;;;;;5027801;28;20050;-88
2022/02/03 21:20:22;;;;;;;9.00;7.72;;;5.70;99.90;;;;;;5028455;28;20060;-88
2022/02/03 21:22:50;;;;;;;9.32;7.72;;;5.70;99.90;;;;;;5028671;28;20123;-88
2022/02/03 21:25:39;;;;;;;8.77;7.47;;;5.60;99.90;;;;;;5028379;28;20469;-88
2022/02/03 21:28:11;;;;;;;7.82;6.93;;;5.70;99.90;;;;;;5012381;28;20056;-88
2022/02/03 21:30:39;;;;;;;8.13;6.57;;;5.70;99.90;;;;;;5028803;28;20482;-88
2022/02/03 21:33:09;;;;;;;6.13;5.53;;;5.70;99.90;;;;;;5028866;28;20109;-88
2022/02/03 21:35:37;;;;;;;5.72;5.18;;;5.70;99.90;;;;;;5028659;28;20140;-88
2022/02/03 21:38:04;;;;;;;6.13;5.25;;;5.70;99.90;;;;;;5013274;28;20096;-88
2022/02/03 21:40:31;;;;;;;5.28;4.70;;;5.80;99.90;;;;;;5028156;28;20058;-88
2022/02/03 21:42:58;;;;;;;4.53;4.22;;;5.80;99.90;;;;;;5028605;28;20424;-88
2022/02/03 21:45:24;;;;;;;6.13;5.10;;;5.80;99.90;;;;;;5028285;28;20060;-88
2022/02/03 21:47:51;;;;;;;4.88;4.45;;;5.80;99.90;;;;;;5028095;28;20054;-88
2022/02/03 21:50:18;;;;;;;4.32;4.00;;;5.70;99.90;;;;;;5028407;28;20054;-88
2022/02/03 21:52:49;;;;;;;4.70;3.72;;;5.70;99.90;;;;;;5028732;28;20052;-88
2022/02/03 21:55:17;;;;;;;4.93;3.92;;;5.80;99.90;;;;;;5013056;28;20052;-88
2022/02/03 21:57:47;;;;;;;4.20;3.90;;;5.80;99.90;;;;;;5028260;28;20136;-88
2022/02/03 22:00:16;;;;;;;4.72;3.80;;;5.80;99.90;;;;;;5013283;28;20080;-88
2022/02/03 22:02:45;;;;;;;4.32;3.92;;;5.80;99.90;;;;;;5028683;28;20136;-88
2022/02/03 22:05:12;;;;;;;3.90;3.60;;;5.80;99.90;;;;;;5032056;28;20056;-88
2022/02/03 22:07:40;;;;;;;4.10;3.70;;;5.80;99.90;;;;;;5032229;28;20077;-88
2022/02/03 22:10:09;;;;;;;3.95;3.65;;;5.80;99.90;;;;;;5019297;28;20056;-88
2022/02/03 22:12:36;;;;;;;4.70;4.10;;;5.70;99.90;;;;;;5031632;28;20077;-88
2022/02/03 22:15:06;;;;;;;5.05;4.55;;;5.70;99.90;;;;;;5031555;28;20457;-88
2022/02/03 22:17:32;;;;;;;4.50;4.07;;;5.70;99.90;;;;;;5016495;28;20050;-88
2022/02/03 22:20:04;;;;;;;6.22;4.18;;;5.70;99.90;;;;;;5031801;28;20058;-88
2022/02/03 22:22:51;;;;;;;4.65;4.25;;;5.70;99.90;;;;;;5031771;28;20060;-88
2022/02/03 22:28:31;;;;;;;7.93;5.38;;;5.70;99.90;;;;;;5016345;28;20132;-88
2022/02/03 22:40:01;;;;;;;5.88;4.30;;;5.60;99.90;;;;;;5016124;28;20049;-88
2022/02/03 22:45:18;;;;;;;6.00;5.38;;;5.60;99.90;;;;;;5015697;28;20050;-88
2022/02/03 22:47:58;;;;;;;5.85;5.32;;;5.50;99.90;;;;;;5015567;28;20505;-89
2022/02/03 22:50:25;;;;;;;6.28;5.43;;;5.50;99.90;;;;;;5015497;28;20133;-88
2022/02/03 22:52:51;;;;;;;5.70;5.20;;;5.60;99.90;;;;;;5031055;28;20046;-88
2022/02/03 22:55:18;;;;;;;6.57;5.97;;;5.60;99.90;;;;;;5030616;28;20416;-88
2022/02/03 22:57:59;;;;;;;8.73;6.82;;;5.60;99.90;;;;;;5031021;28;20105;-88